This is the latest recevied weather packets stored in our database for station/object SR5NLK-1. If no packets are shown the sender has not sent any weather packets the latest 10 day(s).
| Time | Temp. | Humidity | Pressure | Rain* | Wind** | Luminosity | Snow |
|---|---|---|---|---|---|---|---|
| 1787815199 | 28.89° C | 43% | 1020.8 hPa | 0 mm | - | - | - |
| 1787814899 | 28.89° C | 44% | 1027.1 hPa | 0 mm | - | - | - |
| 1787814881 | 24.44° C | 55% | 1058 hPa | 0 mm | - | - | - |
| 1787814637 | 28.89° C | 44% | 1072.1 hPa | 0 mm | - | - | - |
| 1787814599 | 28.89° C | 44% | 1072.1 hPa | 0 mm | - | - | - |
| 1787814525 | 23.89° C | 57% | 1072.1 hPa | 0 mm | - | - | - |
| 1787814299 | 28.89° C | 44% | 1072.1 hPa | 0 mm | - | - | - |
| 1787814102 | 23.89° C | 58% | 1044.1 hPa | 0 mm | - | - | - |
| 1787814000 | 28.33° C | 45% | 1039.6 hPa | 0 mm | - | - | - |
| 1787813879 | 28.33° C | 46% | 1059.5 hPa | 0 mm | - | - | - |
| 1787813700 | 27.78° C | 47% | 1059.5 hPa | 0 mm | - | - | - |
| 1787813400 | 27.22° C | 48% | 1062.7 hPa | 0 mm | - | - | - |
| 1787813133 | 26.67° C | 49% | 1062.7 hPa | 0 mm | - | - | - |
| 1787813099 | 26.67° C | 49% | 1062.7 hPa | 0 mm | - | - | - |
| 1787812991 | 21.67° C | 63% | 990.2 hPa | 0 mm | - | - | - |
| 1787812800 | 25.56° C | 51% | 1075.2 hPa | 0 mm | - | - | - |
| 1787812626 | 21.11° C | 66% | 1084.7 hPa | 0 mm | - | - | - |
| 1787812541 | 25° C | 53% | 1023.1 hPa | 0 mm | - | - | - |
| 1787812499 | 25° C | 53% | 1023.1 hPa | 0 mm | - | - | - |
| 1787812275 | 20.56° C | 67% | 1042.8 hPa | 0 mm | - | - | - |
| 1787812200 | 24.44° C | 53% | 1072.1 hPa | 0 mm | - | - | - |
| 1787811899 | 23.89° C | 53% | 1031.7 hPa | 0 mm | - | - | - |
| 1787811898 | 20° C | 69% | 1065.8 hPa | 0 mm | - | - | - |
| 1787811599 | 23.89° C | 54% | 1084.6 hPa | 0 mm | - | - | - |
| 1787811331 | 23.89° C | 54% | 1087.8 hPa | 0 mm | - | - | - |
* Rain latest hour (hover to see other rain measurements)
** Current wind speed in m/s (hover to see current wind gust speed)